createdAt,value
2023-02-20T00:00:27.640Z,102326.59
2023-02-20T00:02:30.668Z,102309.13
2023-02-20T00:04:32.197Z,102323.13
2023-02-20T00:06:33.647Z,102311.78
2023-02-20T00:08:35.135Z,102303.91
2023-02-20T00:10:36.571Z,102304.81
2023-02-20T00:12:38.078Z,102301.31
2023-02-20T00:14:39.533Z,102293.41
2023-02-20T00:16:41.331Z,102289.06
2023-02-20T00:18:44.240Z,102285.56
2023-02-20T00:20:45.758Z,102284.72
2023-02-20T00:22:47.339Z,102282.06
2023-02-20T00:24:49.399Z,102282.94
2023-02-20T00:26:53.184Z,102261.13
2023-02-20T00:28:54.676Z,102250.59
2023-02-20T00:30:56.469Z,102247.13
2023-02-20T00:32:58.756Z,102255.88
2023-02-20T00:35:00.210Z,102248.06
2023-02-20T00:37:01.788Z,102247.16
2023-02-20T00:39:03.313Z,102245.44
2023-02-20T00:41:04.968Z,102245.44
2023-02-20T00:43:06.449Z,102245.44
2023-02-20T00:45:08.665Z,102250.69
2023-02-20T00:47:10.128Z,102247.22
2023-02-20T00:49:11.576Z,102232.34
2023-02-20T00:51:13.024Z,102234.09
2023-02-20T00:53:14.467Z,102225.38
2023-02-20T00:55:15.982Z,102221.88
2023-02-20T00:57:17.494Z,102220.16
2023-02-20T00:59:19.000Z,102208.88
2023-02-20T01:01:20.763Z,102204.47
2023-02-20T01:03:22.259Z,102200.97
2023-02-20T01:05:24.317Z,102201.84
2023-02-20T01:07:25.814Z,102200.09
2023-02-20T01:09:28.182Z,102194.88
2023-02-20T01:11:29.639Z,102193.13
2023-02-20T01:13:31.910Z,102187.88
2023-02-20T01:15:33.416Z,102181.75
2023-02-20T01:17:34.971Z,102180.06
2023-02-20T01:19:36.473Z,102183.56
2023-02-20T01:21:37.947Z,102180.06
2023-02-20T01:23:39.390Z,102191.47
2023-02-20T01:25:40.866Z,102185.38
2023-02-20T01:27:42.321Z,102179.28
2023-02-20T01:29:43.905Z,102174.03
2023-02-20T01:31:51.941Z,102174.94
2023-02-20T01:33:53.829Z,102173.19
2023-02-20T01:35:55.271Z,102166.22
2023-02-20T01:37:57.257Z,102158.38
2023-02-20T01:39:58.726Z,102154.91
2023-02-20T01:42:09.491Z,102144.47
2023-02-20T01:44:23.426Z,102125.25
2023-02-20T01:46:27.906Z,102113.06
2023-02-20T01:48:29.438Z,102104.31
2023-02-20T01:50:37.052Z,102082.47
2023-02-20T01:52:39.091Z,102089.47
2023-02-20T01:54:43.656Z,102086.91
2023-02-20T01:56:46.529Z,102092.16
2023-02-20T01:58:49.919Z,102094.81
2023-02-20T02:00:51.508Z,102086.94
2023-02-20T02:03:13.254Z,102088.72
2023-02-20T02:05:17.403Z,102086.09
2023-02-20T02:07:19.102Z,102089.63
2023-02-20T02:09:48.673Z,102083.50
2023-02-20T02:11:50.795Z,102080.00
2023-02-20T02:13:52.418Z,102085.28
2023-02-20T02:16:09.971Z,102087.91
2023-02-20T02:18:23.643Z,102080.97
2023-02-20T02:21:07.125Z,102080.97
2023-02-20T02:23:17.729Z,102070.50
2023-02-20T02:25:23.695Z,102073.13
2023-02-20T02:27:28.217Z,102066.16
2023-02-20T02:30:08.959Z,102046.03
2023-02-20T02:32:41.624Z,102032.03
2023-02-20T02:35:01.987Z,102014.56
2023-02-20T02:37:30.107Z,102012.81
2023-02-20T02:40:03.627Z,102018.06
2023-02-20T02:42:14.578Z,102010.19
2023-02-20T02:45:16.904Z,102018.94
2023-02-20T02:47:27.611Z,102004.97
2023-02-20T02:49:56.083Z,101984.84
2023-02-20T02:51:59.232Z,101966.50
2023-02-20T02:54:09.121Z,101954.25
2023-02-20T02:56:23.463Z,101961.28
2023-02-20T02:58:25.010Z,101944.69
2023-02-20T03:00:32.525Z,101930.69
2023-02-20T03:02:41.925Z,101929.81
2023-02-20T03:04:47.252Z,101940.31
2023-02-20T03:06:52.803Z,101941.19
2023-02-20T03:09:01.282Z,101930.72
2023-02-20T03:11:19.918Z,101942.97
2023-02-20T03:13:21.366Z,101955.19
2023-02-20T03:15:39.247Z,101949.94
2023-02-20T03:17:53.041Z,101952.56
2023-02-20T03:19:57.692Z,101938.59
2023-02-20T03:22:01.069Z,101943.84
2023-02-20T03:24:05.397Z,101948.25
2023-02-20T03:26:10.885Z,101934.25
2023-02-20T03:28:21.545Z,101915.03
2023-02-20T03:30:55.422Z,101922.03
2023-02-20T03:33:23.119Z,101919.41
2023-02-20T03:35:44.534Z,101909.78
2023-02-20T03:38:06.858Z,101914.16
2023-02-20T03:40:30.619Z,101908.03
2023-02-20T03:42:55.662Z,101911.53
2023-02-20T03:44:59.846Z,101917.66
2023-02-20T03:47:03.498Z,101910.66
2023-02-20T03:49:11.173Z,101904.53
2023-02-20T03:51:13.235Z,101903.66
2023-02-20T03:53:15.102Z,101909.78
2023-02-20T03:55:16.764Z,101906.28
2023-02-20T03:57:26.702Z,101908.03
2023-02-20T03:59:47.952Z,101893.19
2023-02-20T04:01:54.745Z,101888.78
2023-02-20T04:03:57.986Z,101886.16
2023-02-20T04:06:02.194Z,101891.41
2023-02-20T04:08:30.667Z,101886.16
2023-02-20T04:10:39.893Z,101896.66
2023-02-20T04:12:45.297Z,101895.78
2023-02-20T04:14:49.125Z,101893.16
2023-02-20T04:16:55.716Z,101894.06
2023-02-20T04:18:57.215Z,101880.94
2023-02-20T04:21:01.862Z,101901.06
2023-02-20T04:23:15.402Z,101881.81
2023-02-20T04:25:31.075Z,101881.81
2023-02-20T04:27:32.881Z,101875.69
2023-02-20T04:29:34.454Z,101876.59
2023-02-20T04:31:36.090Z,101878.34
2023-02-20T04:33:37.607Z,101880.97
2023-02-20T04:35:39.953Z,101865.22
2023-02-20T04:37:41.383Z,101874.84
2023-02-20T04:39:43.419Z,101879.25
2023-02-20T04:41:44.861Z,101895.88
2023-02-20T04:43:47.230Z,101895.00
2023-02-20T04:45:48.719Z,101881.88
2023-02-20T04:47:50.488Z,101892.38
2023-02-20T04:49:51.942Z,101883.63
2023-02-20T04:51:53.462Z,101876.63
2023-02-20T04:53:54.910Z,101877.50
2023-02-20T04:55:56.389Z,101885.38
2023-02-20T04:57:58.467Z,101877.50
2023-02-20T05:00:00.085Z,101886.25
2023-02-20T05:02:02.070Z,101879.25
2023-02-20T05:04:03.587Z,101883.63
2023-02-20T05:06:05.208Z,101871.38
2023-02-20T05:08:08.227Z,101865.22
2023-02-20T05:10:13.894Z,101865.22
2023-02-20T05:12:15.411Z,101865.22
2023-02-20T05:14:17.614Z,101859.97
2023-02-20T05:16:19.156Z,101855.59
2023-02-20T05:18:27.938Z,101846.84
2023-02-20T05:20:48.153Z,101852.97
2023-02-20T05:22:49.610Z,101845.97
2023-02-20T05:24:52.030Z,101852.97
2023-02-20T05:26:53.503Z,101837.22
2023-02-20T05:28:54.943Z,101834.59
2023-02-20T05:30:56.393Z,101831.97
2023-02-20T05:32:57.905Z,101828.47
2023-02-20T05:34:59.456Z,101828.47
2023-02-20T05:37:00.896Z,101831.97
2023-02-20T05:39:02.834Z,101818.84
2023-02-20T05:41:04.495Z,101837.22
2023-02-20T05:43:05.976Z,101837.22
2023-02-20T05:45:09.132Z,101833.72
2023-02-20T05:47:10.966Z,101818.84
2023-02-20T05:49:12.629Z,101823.22
2023-02-20T05:51:22.640Z,101818.84
2023-02-20T05:53:24.210Z,101812.72
2023-02-20T05:55:25.733Z,101811.84
2023-02-20T05:57:27.287Z,101811.84
2023-02-20T05:59:28.743Z,101805.72
2023-02-20T06:01:31.969Z,101808.31
2023-02-20T06:03:33.464Z,101810.06
2023-02-20T06:05:34.928Z,101812.69
2023-02-20T06:07:36.402Z,101815.31
2023-02-20T06:09:41.241Z,101816.19
2023-02-20T06:11:48.009Z,101823.19
2023-02-20T06:13:49.431Z,101830.19
2023-02-20T06:15:51.018Z,101833.69
2023-02-20T06:17:53.100Z,101836.31
2023-02-20T06:19:54.534Z,101831.06
2023-02-20T06:21:58.705Z,101841.56
2023-02-20T06:24:00.179Z,101838.06
2023-02-20T06:26:01.678Z,101826.72
2023-02-20T06:28:03.292Z,101822.31
2023-02-20T06:30:05.663Z,101827.56
2023-02-20T06:32:07.394Z,101829.34
2023-02-20T06:34:10.293Z,101837.22
2023-02-20T06:36:20.516Z,101826.72
2023-02-20T06:38:22.063Z,101811.84
2023-02-20T06:40:23.532Z,101816.22
2023-02-20T06:42:25.023Z,101802.22
2023-02-20T06:44:26.509Z,101796.09
2023-02-20T06:46:28.330Z,101796.97
2023-02-20T06:48:29.840Z,101800.47
2023-02-20T06:50:31.372Z,101800.47
2023-02-20T06:52:32.824Z,101803.09
2023-02-20T06:54:34.532Z,101817.97
2023-02-20T06:56:37.195Z,101804.84
2023-02-20T06:58:38.660Z,101811.84
2023-02-20T07:00:40.103Z,101817.97
2023-02-20T07:02:41.689Z,101815.34
2023-02-20T07:04:43.199Z,101825.84
2023-02-20T07:06:44.770Z,101802.22
2023-02-20T07:08:46.208Z,101807.50
2023-02-20T07:10:47.699Z,101800.50
2023-02-20T07:12:49.269Z,101810.13
2023-02-20T07:14:51.568Z,101803.13
2023-02-20T07:16:53.145Z,101806.63
2023-02-20T07:18:54.604Z,101804.00
2023-02-20T07:20:56.534Z,101806.66
2023-02-20T07:22:57.984Z,101804.91
2023-02-20T07:24:59.443Z,101804.94
2023-02-20T07:27:00.918Z,101793.53
2023-02-20T07:29:02.453Z,101802.28
2023-02-20T07:31:04.163Z,101797.03
2023-02-20T07:33:05.688Z,101783.03
2023-02-20T07:35:09.422Z,101783.03
2023-02-20T07:37:11.109Z,101803.19
2023-02-20T07:39:13.405Z,101797.94
2023-02-20T07:41:15.500Z,101789.19
2023-02-20T07:43:16.967Z,101806.69
2023-02-20T07:45:18.679Z,101798.81
2023-02-20T07:47:20.155Z,101798.81
2023-02-20T07:49:21.600Z,101811.06
2023-02-20T07:51:23.092Z,101814.56
2023-02-20T07:53:24.611Z,101807.56
2023-02-20T07:55:26.202Z,101798.81
2023-02-20T07:57:27.770Z,101792.69
2023-02-20T07:59:29.246Z,101802.31
2023-02-20T08:01:30.711Z,101797.94
2023-02-20T08:03:32.218Z,101797.94
2023-02-20T08:05:48.290Z,101801.44
2023-02-20T08:07:51.078Z,101797.94
2023-02-20T08:09:52.708Z,101794.44
2023-02-20T08:11:54.197Z,101804.06
2023-02-20T08:13:55.804Z,101792.69
2023-02-20T08:15:57.376Z,101797.06
2023-02-20T08:17:58.868Z,101797.06
2023-02-20T08:20:00.356Z,101791.84
2023-02-20T08:22:01.818Z,101781.34
2023-02-20T08:24:03.322Z,101790.09
2023-02-20T08:26:05.874Z,101787.47
2023-02-20T08:28:07.358Z,101783.97
2023-02-20T08:30:23.904Z,101776.06
2023-02-20T08:32:25.562Z,101778.69
2023-02-20T08:34:27.107Z,101783.09
2023-02-20T08:36:29.014Z,101778.69
2023-02-20T08:38:36.563Z,101783.06
2023-02-20T08:40:38.038Z,101770.81
2023-02-20T08:42:39.673Z,101763.81
2023-02-20T08:44:41.616Z,101763.81
2023-02-20T08:46:50.612Z,101779.56
2023-02-20T08:48:52.198Z,101759.41
2023-02-20T08:50:53.771Z,101764.66
2023-02-20T08:52:55.264Z,101751.53
2023-02-20T08:54:56.711Z,101753.28
2023-02-20T08:56:58.162Z,101760.28
2023-02-20T08:58:59.632Z,101758.53
2023-02-20T09:01:01.133Z,101759.38
2023-02-20T09:03:07.202Z,101762.88
2023-02-20T09:05:09.053Z,101759.38
2023-02-20T09:07:10.857Z,101762.88
2023-02-20T09:09:12.392Z,101761.16
2023-02-20T09:11:14.752Z,101748.88
2023-02-20T09:13:16.674Z,101746.25
2023-02-20T09:15:18.207Z,101734.84
2023-02-20T09:17:19.714Z,101733.97
2023-02-20T09:19:21.537Z,101747.09
2023-02-20T09:21:23.129Z,101755.88
2023-02-20T09:23:25.568Z,101763.75
2023-02-20T09:25:27.093Z,101768.13
2023-02-20T09:27:28.533Z,101778.66
2023-02-20T09:29:30.027Z,101768.13
2023-02-20T09:31:31.613Z,101768.13
2023-02-20T09:33:33.545Z,101759.38
2023-02-20T09:35:35.022Z,101759.34
2023-02-20T09:37:36.472Z,101755.84
2023-02-20T09:39:37.991Z,101761.97
2023-02-20T09:42:03.654Z,101768.09
2023-02-20T09:44:29.021Z,101754.06
2023-02-20T09:46:31.146Z,101755.81
2023-02-20T09:49:10.029Z,101757.53
2023-02-20T09:51:16.445Z,101757.53
2023-02-20T09:53:36.895Z,101751.38
2023-02-20T09:55:41.080Z,101754.00
2023-02-20T09:57:44.166Z,101747.88
2023-02-20T10:00:04.030Z,101747.00
2023-02-20T10:02:16.534Z,101750.50
2023-02-20T10:04:21.687Z,101746.97
2023-02-20T10:06:26.984Z,101751.38
2023-02-20T10:08:28.454Z,101746.09
2023-02-20T10:10:41.482Z,101747.84
2023-02-20T10:12:56.015Z,101741.69
2023-02-20T10:15:03.632Z,101730.28
2023-02-20T10:17:11.128Z,101742.56
2023-02-20T10:19:27.895Z,101742.53
2023-02-20T10:21:34.354Z,101733.75
2023-02-20T10:23:47.276Z,101734.59
2023-02-20T10:26:04.797Z,101736.34
2023-02-20T10:28:10.800Z,101726.69
2023-02-20T10:30:15.774Z,101724.94
2023-02-20T10:32:37.938Z,101738.09
2023-02-20T10:34:58.701Z,101729.31
2023-02-20T10:37:17.729Z,101729.28
2023-02-20T10:39:21.706Z,101720.50
2023-02-20T10:41:32.055Z,101724.91
2023-02-20T10:43:44.515Z,101728.41
2023-02-20T10:45:55.915Z,101724.00
2023-02-20T10:48:09.714Z,101724.88
2023-02-20T10:50:23.986Z,101738.94
2023-02-20T10:52:37.119Z,101738.03
2023-02-20T10:54:45.984Z,101731.91
2023-02-20T10:57:08.256Z,101731.91
2023-02-20T10:59:18.806Z,101738.91
2023-02-20T11:01:23.305Z,101728.34
2023-02-20T11:03:36.973Z,101727.47
2023-02-20T11:05:46.894Z,101734.50
2023-02-20T11:07:49.473Z,101730.09
2023-02-20T11:09:51.032Z,101723.06
2023-02-20T11:11:54.805Z,101709.91
2023-02-20T11:13:59.135Z,101703.75
2023-02-20T11:16:01.610Z,101711.66
2023-02-20T11:18:11.824Z,101732.75
2023-02-20T11:20:31.782Z,101743.28
2023-02-20T11:22:45.492Z,101744.16
2023-02-20T11:24:47.287Z,101737.13
2023-02-20T11:26:52.117Z,101731.00
2023-02-20T11:29:04.914Z,101734.50
2023-02-20T11:31:08.397Z,101743.28
2023-02-20T11:33:23.780Z,101745.91
2023-02-20T11:35:29.866Z,101736.25
2023-02-20T11:37:35.964Z,101744.16
2023-02-20T11:39:38.852Z,101733.66
2023-02-20T11:41:40.770Z,101737.16
2023-02-20T11:44:00.171Z,101731.00
2023-02-20T11:46:23.055Z,101737.16
2023-02-20T11:48:24.519Z,101733.66
2023-02-20T11:50:42.065Z,101725.75
2023-02-20T11:53:02.512Z,101735.41
2023-02-20T11:55:33.840Z,101721.38
2023-02-20T11:57:40.335Z,101716.97
2023-02-20T11:59:47.286Z,101723.97
2023-02-20T12:02:00.331Z,101717.84
2023-02-20T12:04:02.498Z,101706.41
2023-02-20T12:06:31.695Z,101713.44
2023-02-20T12:08:42.916Z,101718.69
2023-02-20T12:10:48.362Z,101716.03
2023-02-20T12:12:50.254Z,101709.88
2023-02-20T12:14:51.803Z,101703.72
2023-02-20T12:17:06.427Z,101714.25
2023-02-20T12:19:34.867Z,101697.56
2023-02-20T12:22:01.178Z,101706.31
2023-02-20T12:24:35.845Z,101706.28
2023-02-20T12:26:59.354Z,101712.41
2023-02-20T12:29:31.017Z,101717.66
2023-02-20T12:32:01.782Z,101717.66
2023-02-20T12:34:28.138Z,101703.59
2023-02-20T12:37:11.221Z,101694.78
2023-02-20T12:39:33.988Z,101698.25
2023-02-20T12:41:59.220Z,101686.84
2023-02-20T12:44:39.665Z,101693.00
2023-02-20T12:47:03.978Z,101685.06
2023-02-20T12:49:11.386Z,101690.31
2023-02-20T12:51:42.671Z,101685.03
2023-02-20T12:53:58.313Z,101687.66
2023-02-20T12:56:16.708Z,101686.75
2023-02-20T12:58:45.897Z,101679.72
2023-02-20T13:00:52.285Z,101680.56
2023-02-20T13:03:02.931Z,101667.38
2023-02-20T13:05:08.189Z,101668.25
2023-02-20T13:07:24.566Z,101675.25
2023-02-20T13:10:09.133Z,101654.16
2023-02-20T13:12:15.164Z,101654.16
2023-02-20T13:14:16.574Z,101668.19
2023-02-20T13:16:27.136Z,101659.41
2023-02-20T13:18:44.370Z,101653.31
2023-02-20T13:20:49.824Z,101653.34
2023-02-20T13:23:15.452Z,101657.75
2023-02-20T13:25:41.740Z,101665.66
2023-02-20T13:27:43.330Z,101661.28
2023-02-20T13:30:17.987Z,101654.28
2023-02-20T13:32:19.582Z,101652.53
2023-02-20T13:34:33.700Z,101655.16
2023-02-20T13:36:35.144Z,101650.78
2023-02-20T13:38:36.621Z,101656.00
2023-02-20T13:40:45.851Z,101651.66
2023-02-20T13:42:47.335Z,101646.41
2023-02-20T13:44:50.697Z,101646.44
2023-02-20T13:47:02.735Z,101655.22
2023-02-20T13:49:08.864Z,101646.47
2023-02-20T13:51:16.572Z,101649.09
2023-02-20T13:53:18.096Z,101640.34
2023-02-20T13:55:25.308Z,101647.38
2023-02-20T13:57:33.727Z,101646.53
2023-02-20T13:59:37.468Z,101657.94
2023-02-20T14:01:57.055Z,101643.88
2023-02-20T14:04:03.990Z,101637.72
2023-02-20T14:06:16.644Z,101649.16
2023-02-20T14:08:19.139Z,101640.34
2023-02-20T14:10:23.235Z,101638.59
2023-02-20T14:12:24.741Z,101649.13
2023-02-20T14:14:32.391Z,101640.31
2023-02-20T14:16:41.820Z,101641.19
2023-02-20T14:18:43.625Z,101647.31
2023-02-20T14:20:45.528Z,101641.13
2023-02-20T14:22:47.095Z,101642.00
2023-02-20T14:25:16.356Z,101637.56
2023-02-20T14:27:33.383Z,101641.91
2023-02-20T14:29:36.657Z,101644.56
2023-02-20T14:31:38.437Z,101645.41
2023-02-20T14:33:40.122Z,101640.13
2023-02-20T14:36:00.937Z,101642.72
2023-02-20T14:38:30.095Z,101636.56
2023-02-20T14:40:41.562Z,101649.72
2023-02-20T14:42:46.983Z,101646.19
2023-02-20T14:44:51.013Z,101640.91
2023-02-20T14:46:56.118Z,101650.56
2023-02-20T14:49:09.429Z,101658.44
2023-02-20T14:51:15.514Z,101639.97
2023-02-20T14:53:20.836Z,101641.75
2023-02-20T14:55:25.866Z,101638.22
2023-02-20T14:57:28.697Z,101640.84
2023-02-20T14:59:34.289Z,101651.41
2023-02-20T15:01:39.323Z,101639.06
2023-02-20T15:03:40.978Z,101647.00
2023-02-20T15:05:44.647Z,101651.34
2023-02-20T15:07:46.853Z,101648.72
2023-02-20T15:09:51.112Z,101640.81
2023-02-20T15:11:59.195Z,101632.91
2023-02-20T15:14:02.224Z,101642.56
2023-02-20T15:16:28.598Z,101648.72
2023-02-20T15:18:37.209Z,101646.94
2023-02-20T15:20:42.653Z,101643.41
2023-02-20T15:22:44.621Z,101647.81
2023-02-20T15:24:46.083Z,101646.94
2023-02-20T15:26:47.542Z,101639.00
2023-02-20T15:28:49.018Z,101645.16
2023-02-20T15:31:08.498Z,101634.63
2023-02-20T15:33:10.155Z,101653.06
2023-02-20T15:35:23.841Z,101635.50
2023-02-20T15:37:37.963Z,101639.88
2023-02-20T15:39:47.770Z,101635.47
2023-02-20T15:41:49.328Z,101631.97
2023-02-20T15:43:51.859Z,101631.94
2023-02-20T15:45:54.248Z,101633.69
2023-02-20T15:47:56.809Z,101637.19
2023-02-20T15:49:58.354Z,101629.28
2023-02-20T15:52:08.938Z,101622.25
2023-02-20T15:54:17.148Z,101628.38
2023-02-20T15:56:19.921Z,101633.63
2023-02-20T15:58:31.440Z,101622.19
2023-02-20T16:00:35.256Z,101624.81
2023-02-20T16:02:36.853Z,101630.97
2023-02-20T16:04:38.336Z,101615.09
2023-02-20T16:06:39.923Z,101623.03
2023-02-20T16:08:42.239Z,101624.75
2023-02-20T16:10:43.714Z,101629.16
2023-02-20T16:12:47.051Z,101618.59
2023-02-20T16:14:53.577Z,101618.56
2023-02-20T16:16:55.430Z,101620.34
2023-02-20T16:18:57.154Z,101631.75
2023-02-20T16:20:58.804Z,101626.50
2023-02-20T16:23:00.932Z,101622.09
2023-02-20T16:25:02.469Z,101621.19
2023-02-20T16:27:07.718Z,101622.09
2023-02-20T16:29:20.474Z,101622.09
2023-02-20T16:31:22.078Z,101615.09
2023-02-20T16:33:24.389Z,101612.50
2023-02-20T16:35:25.879Z,101617.81
2023-02-20T16:37:28.904Z,101618.72
2023-02-20T16:39:30.440Z,101628.41
2023-02-20T16:41:33.966Z,101614.38
2023-02-20T16:43:35.472Z,101621.47
2023-02-20T16:45:37.136Z,101626.75
2023-02-20T16:47:38.677Z,101625.94
2023-02-20T16:49:40.437Z,101616.28
2023-02-20T16:51:49.230Z,101618.94
2023-02-20T16:53:50.605Z,101615.47
2023-02-20T16:55:52.147Z,101618.13
2023-02-20T16:57:54.639Z,101611.16
2023-02-20T16:59:58.852Z,101619.91
2023-02-20T17:02:00.614Z,101618.19
2023-02-20T17:04:03.003Z,101623.47
2023-02-20T17:06:04.720Z,101622.59
2023-02-20T17:08:07.091Z,101630.50
2023-02-20T17:10:09.029Z,101628.75
2023-02-20T17:12:11.351Z,101634.91
2023-02-20T17:14:15.904Z,101629.66
2023-02-20T17:16:30.770Z,101627.91
2023-02-20T17:18:32.674Z,101627.91
2023-02-20T17:20:34.149Z,101636.72
2023-02-20T17:22:35.659Z,101627.91
2023-02-20T17:24:43.223Z,101634.97
2023-02-20T17:26:45.566Z,101641.13
2023-02-20T17:28:47.454Z,101634.09
2023-02-20T17:30:54.309Z,101627.94
2023-02-20T17:32:55.788Z,101647.28
2023-02-20T17:34:57.262Z,101629.72
2023-02-20T17:36:59.315Z,101643.78
2023-02-20T17:39:00.942Z,101641.16
2023-02-20T17:41:04.146Z,101635.88
2023-02-20T17:43:06.183Z,101643.78
2023-02-20T17:45:08.315Z,101640.25
2023-02-20T17:47:10.558Z,101641.13
2023-02-20T17:49:12.996Z,101630.59
2023-02-20T17:51:19.704Z,101641.13
2023-02-20T17:53:21.196Z,101642.00
2023-02-20T17:55:25.614Z,101649.91
2023-02-20T17:57:28.276Z,101635.84
2023-02-20T17:59:30.532Z,101630.56
2023-02-20T18:01:32.036Z,101631.44
2023-02-20T18:03:33.518Z,101637.59
2023-02-20T18:05:35.004Z,101630.53
2023-02-20T18:07:36.497Z,101625.28
2023-02-20T18:09:38.711Z,101636.69
2023-02-20T18:11:40.316Z,101628.75
2023-02-20T18:13:41.803Z,101634.88
2023-02-20T18:15:43.406Z,101633.09
2023-02-20T18:17:44.894Z,101630.44
2023-02-20T18:19:46.381Z,101643.59
2023-02-20T18:21:49.848Z,101631.28
2023-02-20T18:23:51.432Z,101625.09
2023-02-20T18:25:53.628Z,101638.25
2023-02-20T18:27:55.207Z,101634.75
2023-02-20T18:29:56.741Z,101639.13
2023-02-20T18:31:58.933Z,101633.88
2023-02-20T18:34:01.843Z,101641.78
2023-02-20T18:36:08.288Z,101635.59
2023-02-20T18:38:20.963Z,101637.34
2023-02-20T18:40:24.167Z,101635.59
2023-02-20T18:42:25.706Z,101635.59
2023-02-20T18:44:27.724Z,101652.22
2023-02-20T18:46:36.591Z,101635.53
2023-02-20T18:48:38.116Z,101637.28
2023-02-20T18:50:39.619Z,101641.63
2023-02-20T18:52:41.158Z,101641.63
2023-02-20T18:54:42.714Z,101643.38
2023-02-20T18:56:48.659Z,101630.19
2023-02-20T18:58:50.560Z,101636.34
2023-02-20T19:00:52.070Z,101641.63
2023-02-20T19:02:55.501Z,101649.53
2023-02-20T19:04:58.782Z,101646.94
2023-02-20T19:07:00.362Z,101643.38
2023-02-20T19:09:02.019Z,101641.63
2023-02-20T19:11:03.698Z,101645.19
2023-02-20T19:13:05.209Z,101645.19
2023-02-20T19:15:07.661Z,101642.53
2023-02-20T19:17:10.640Z,101635.53
2023-02-20T19:19:18.476Z,101648.72
2023-02-20T19:21:22.782Z,101650.50
2023-02-20T19:23:24.284Z,101635.59
2023-02-20T19:25:26.355Z,101640.00
2023-02-20T19:27:28.151Z,101645.28
2023-02-20T19:29:29.637Z,101647.94
2023-02-20T19:31:31.183Z,101648.81
2023-02-20T19:33:32.712Z,101634.81
2023-02-20T19:35:34.230Z,101640.09
2023-02-20T19:37:36.562Z,101639.25
2023-02-20T19:39:38.092Z,101641.00
2023-02-20T19:41:39.667Z,101633.13
2023-02-20T19:43:41.301Z,101630.47
2023-02-20T19:45:43.008Z,101633.13
2023-02-20T19:47:45.547Z,101631.38
2023-02-20T19:49:47.288Z,101619.13
2023-02-20T19:51:51.053Z,101623.50
2023-02-20T19:53:52.690Z,101622.59
2023-02-20T19:55:54.487Z,101615.56
2023-02-20T19:57:56.375Z,101619.97
2023-02-20T19:59:57.854Z,101619.09
2023-02-20T20:02:00.795Z,101620.84
2023-02-20T20:04:02.291Z,101624.34
2023-02-20T20:06:03.985Z,101626.13
2023-02-20T20:08:06.814Z,101623.47
2023-02-20T20:10:10.790Z,101623.47
2023-02-20T20:12:30.949Z,101619.06
2023-02-20T20:14:32.433Z,101628.69
2023-02-20T20:16:37.589Z,101625.16
2023-02-20T20:18:39.161Z,101626.91
2023-02-20T20:20:40.662Z,101618.09
2023-02-20T20:22:42.478Z,101612.78
2023-02-20T20:24:43.948Z,101618.03
2023-02-20T20:26:45.533Z,101618.03
2023-02-20T20:28:47.014Z,101627.63
2023-02-20T20:30:48.721Z,101622.34
2023-02-20T20:32:51.587Z,101619.72
2023-02-20T20:34:55.217Z,101620.56
2023-02-20T20:36:56.970Z,101624.09
2023-02-20T20:38:58.454Z,101624.97
2023-02-20T20:40:59.939Z,101623.19
2023-02-20T20:43:01.412Z,101617.03
2023-02-20T20:45:03.585Z,101620.56
2023-02-20T20:47:06.457Z,101615.25
2023-02-20T20:49:10.902Z,101613.50
2023-02-20T20:51:14.398Z,101614.38
2023-02-20T20:53:16.745Z,101615.25
2023-02-20T20:55:18.222Z,101628.41
2023-02-20T20:57:22.021Z,101622.25
2023-02-20T20:59:23.494Z,101623.09
2023-02-20T21:01:25.239Z,101620.47
2023-02-20T21:03:26.781Z,101619.56
2023-02-20T21:05:31.761Z,101620.44
2023-02-20T21:07:33.803Z,101623.06
2023-02-20T21:09:35.454Z,101625.72
2023-02-20T21:11:36.989Z,101620.47
2023-02-20T21:13:38.444Z,101618.66
2023-02-20T21:15:39.994Z,101612.53
2023-02-20T21:17:43.146Z,101605.50
2023-02-20T21:19:44.599Z,101608.13
2023-02-20T21:21:46.074Z,101605.50
2023-02-20T21:23:47.828Z,101606.38
2023-02-20T21:25:49.317Z,101605.47
2023-02-20T21:27:52.081Z,101611.59
2023-02-20T21:29:53.606Z,101608.09
2023-02-20T21:31:55.105Z,101603.66
2023-02-20T21:33:57.284Z,101600.13
2023-02-20T21:36:00.341Z,101601.91
2023-02-20T21:38:01.863Z,101606.31
2023-02-20T21:40:03.691Z,101606.31
2023-02-20T21:42:24.215Z,101612.44
2023-02-20T21:44:26.470Z,101604.56
2023-02-20T21:46:27.950Z,101618.59
2023-02-20T21:48:29.445Z,101600.16
2023-02-20T21:50:31.102Z,101610.72
2023-02-20T21:52:36.708Z,101614.22
2023-02-20T21:54:39.732Z,101619.50
2023-02-20T21:56:41.670Z,101603.72
2023-02-20T21:59:01.524Z,101601.09
2023-02-20T22:01:02.959Z,101604.63
2023-02-20T22:03:05.188Z,101602.84
2023-02-20T22:05:08.034Z,101594.00
2023-02-20T22:07:28.229Z,101614.22
2023-02-20T22:09:48.052Z,101597.53
2023-02-20T22:12:08.350Z,101603.69
2023-02-20T22:14:28.184Z,101615.97
2023-02-20T22:16:48.025Z,101609.00
2023-02-20T22:19:07.861Z,101613.41
2023-02-20T22:21:27.727Z,101612.50
2023-02-20T22:23:47.431Z,101619.56
2023-02-20T22:26:07.362Z,101612.53
2023-02-20T22:28:27.735Z,101616.00
2023-02-20T22:30:50.063Z,101623.91
2023-02-20T22:33:12.367Z,101609.00
2023-02-20T22:35:33.199Z,101616.94
2023-02-20T22:37:53.095Z,101609.94
2023-02-20T22:40:12.910Z,101608.25
2023-02-20T22:42:35.237Z,101606.50
2023-02-20T22:44:55.314Z,101607.47
2023-02-20T22:47:15.132Z,101611.91
2023-02-20T22:49:34.860Z,101617.19
2023-02-20T22:51:55.180Z,101611.94
2023-02-20T22:54:15.178Z,101616.34
2023-02-20T22:56:36.833Z,101604.94
2023-02-20T22:58:56.628Z,101617.28
2023-02-20T23:01:17.022Z,101608.53
2023-02-20T23:03:36.988Z,101611.19
2023-02-20T23:06:00.510Z,101605.03
2023-02-20T23:08:25.538Z,101605.91
2023-02-20T23:10:45.292Z,101598.03
2023-02-20T23:13:05.612Z,101605.97
2023-02-20T23:15:25.876Z,101616.47
2023-02-20T23:17:46.079Z,101607.69
2023-02-20T23:20:05.916Z,101600.72
2023-02-20T23:22:25.699Z,101600.72
2023-02-20T23:24:45.458Z,101597.22
2023-02-20T23:27:11.875Z,101605.13
2023-02-20T23:29:31.879Z,101600.75
2023-02-20T23:32:02.986Z,101596.31
2023-02-20T23:34:23.761Z,101602.47
2023-02-20T23:36:43.576Z,101607.78
2023-02-20T23:39:03.273Z,101613.03
2023-02-20T23:41:25.732Z,101613.06
2023-02-20T23:43:49.159Z,101606.91
2023-02-20T23:46:09.495Z,101601.63
2023-02-20T23:48:30.745Z,101601.63
2023-02-20T23:50:50.578Z,101609.53
2023-02-20T23:53:10.404Z,101606.00
2023-02-20T23:55:30.127Z,101613.91
2023-02-20T23:57:50.470Z,101609.50
